Time;durP1;ratioP1;P1;durP2;ratioP2;P2;SDS_P1;SDS_P2;PMS_P1;PMS_P2;Temp;Humidity;BMP_temperature;BMP_pressure;BME280_temperature;BME280_humidity;BME280_pressure;Samples;Min_cycle;Max_cycle;Signal;HPM_P1;HPM_P2
2022/06/03 00:01:17;;;;;;;0.45;0.45;;;;;;;15.31;44.14;100573.66;4955701;28;20427;-73
2022/06/03 00:04:05;;;;;;;;;;;;;;;;;;;;;
2022/06/03 00:07:28;;;;;;;0.52;0.50;;;;;;;15.29;44.43;100577.84;4959068;28;20111;-72
2022/06/03 00:10:34;;;;;;;1.42;0.80;;;;;;;15.20;44.66;100572.16;4883489;29;20039;-74
2022/06/03 00:13:52;;;;;;;1.40;0.70;;;;;;;15.11;44.72;100568.38;4912030;28;20025;-71
2022/06/03 00:16:58;;;;;;;0.57;0.50;;;;;;;15.02;45.28;100568.22;4953477;28;20039;-73
2022/06/03 00:19:37;;;;;;;1.38;0.70;;;;;;;14.92;45.46;100562.81;4952395;29;20078;-73
2022/06/03 00:22:15;;;;;;;0.85;0.60;;;;;;;14.82;45.31;100534.28;4949645;29;20056;-72
2022/06/03 00:24:58;;;;;;;0.85;0.65;;;;;;;14.96;45.35;100555.63;4949861;29;20087;-72
2022/06/03 00:27:45;;;;;;;0.50;0.50;;;;;;;14.98;45.44;100558.88;4934976;29;20027;-73
2022/06/03 00:30:37;;;;;;;0.68;0.68;;;;;;;14.93;45.69;100545.19;4942067;29;20036;-72
2022/06/03 00:33:09;;;;;;;0.70;0.60;;;;;;;14.96;45.70;100556.44;4951939;29;20020;-72
2022/06/03 00:35:59;;;;;;;0.65;0.60;;;;;;;14.91;45.66;100552.91;4955888;29;20055;-72
2022/06/03 00:39:08;;;;;;;1.80;0.80;;;;;;;14.83;46.41;100546.94;4930903;29;20091;-72
2022/06/03 00:41:45;;;;;;;1.25;1.00;;;;;;;14.79;46.20;100545.88;4940408;29;20115;-73
2022/06/03 00:44:32;;;;;;;1.63;1.02;;;;;;;14.74;46.71;100559.69;4925953;29;20067;-72
2022/06/03 00:47:05;;;;;;;2.03;1.20;;;;;;;14.63;46.95;100555.38;4941917;29;20067;-73
2022/06/03 00:50:08;;;;;;;1.27;1.00;;;;;;;14.47;47.27;100544.50;4942569;29;20474;-73
2022/06/03 00:53:05;;;;;;;1.83;1.02;;;;;;;14.31;47.57;100551.28;4919292;29;20275;-72
2022/06/03 00:55:51;;;;;;;1.48;0.80;;;;;;;14.16;47.73;100540.38;4937731;29;20035;-73
2022/06/03 00:58:54;;;;;;;1.05;0.90;;;;;;;14.03;48.17;100545.44;4919388;29;20024;-74
2022/06/03 01:01:40;;;;;;;2.03;1.02;;;;;;;13.85;49.48;100543.34;4922744;29;20054;-72
2022/06/03 01:04:17;;;;;;;0.93;0.80;;;;;;;13.69;49.38;100546.19;4905793;29;20479;-73
2022/06/03 01:06:59;;;;;;;1.10;0.80;;;;;;;13.56;50.23;100538.56;4931591;29;20063;-73
2022/06/03 01:09:40;;;;;;;1.13;0.90;;;;;;;13.43;50.13;100538.09;4916740;29;20055;-73
2022/06/03 01:12:38;;;;;;;1.30;0.75;;;;;;;13.29;50.65;100542.53;4920914;29;20042;-73
2022/06/03 01:15:35;;;;;;;1.65;0.98;;;;;;;13.16;51.10;100534.91;4933213;29;20042;-72
2022/06/03 01:18:36;;;;;;;1.77;1.15;;;;;;;13.07;51.79;100529.97;4954867;28;20477;-74
2022/06/03 01:21:28;;;;;;;1.10;0.82;;;;;;;12.99;51.70;100530.53;4896825;29;20092;-74
2022/06/03 01:24:28;;;;;;;1.48;1.08;;;;;;;12.97;51.67;100535.50;4953291;28;20039;-72
2022/06/03 01:27:19;;;;;;;1.58;0.90;;;;;;;12.91;52.48;100539.38;4945677;28;20034;-72
2022/06/03 01:30:06;;;;;;;1.50;0.90;;;;;;;12.84;53.03;100539.66;4955819;28;20035;-73
2022/06/03 01:33:03;;;;;;;1.38;1.00;;;;;;;12.79;53.42;100538.84;4951745;28;20035;-72
2022/06/03 01:35:44;;;;;;;1.45;1.08;;;;;;;12.73;53.42;100535.28;4953788;28;20020;-73
2022/06/03 01:38:30;;;;;;;1.15;0.95;;;;;;;12.70;53.55;100539.44;4957601;28;20117;-72
2022/06/03 01:41:37;;;;;;;1.05;0.90;;;;;;;12.67;52.79;100537.22;4949572;28;20027;-72
2022/06/03 01:44:19;;;;;;;0.93;0.70;;;;;;;12.67;53.65;100531.72;4891351;29;20141;-73
2022/06/03 01:46:59;;;;;;;1.13;0.80;;;;;;;12.72;53.27;100528.97;4886446;29;20040;-72
2022/06/03 01:49:57;;;;;;;2.83;0.98;;;;;;;12.83;54.10;100528.97;4943180;28;20031;-73
2022/06/03 01:53:14;;;;;;;2.28;1.33;;;;;;;13.06;53.78;100522.84;4962408;28;20047;-73
2022/06/03 01:55:57;;;;;;;2.17;1.15;;;;;;;13.30;53.34;100521.38;4914988;28;20045;-74
2022/06/03 01:58:56;;;;;;;1.73;1.15;;;;;;;13.43;52.88;100505.16;4949487;28;20031;-74
2022/06/03 02:02:00;;;;;;;1.25;1.00;;;;;;;13.60;52.83;100521.22;4938043;28;20047;-72
2022/06/03 02:04:34;;;;;;;1.50;1.13;;;;;;;13.67;52.19;100507.19;4963566;28;20027;-74
2022/06/03 02:07:12;;;;;;;;;;;;;;;13.75;52.28;100508.50;4962070;28;20031;-73
2022/06/03 02:09:49;;;;;;;1.33;1.10;;;;;;;13.78;52.35;100500.53;4949543;28;20439;-74
2022/06/03 02:12:18;;;;;;;1.00;0.85;;;;;;;13.85;52.47;100507.63;4953263;28;20102;-74
2022/06/03 02:15:02;;;;;;;1.40;1.10;;;;;;;13.85;51.86;100504.88;4957555;28;20037;-73
2022/06/03 02:17:28;;;;;;;;;;;;;;;13.85;51.64;100499.38;4959812;28;20043;-74
2022/06/03 02:20:24;;;;;;;2.65;0.98;;;;;;;13.87;51.68;100502.66;4961121;28;20384;-73
2022/06/03 02:23:28;;;;;;;0.60;0.60;;;;;;;13.88;52.35;100502.38;4954797;28;20027;-71
2022/06/03 02:26:05;;;;;;;1.13;0.90;;;;;;;13.87;52.33;100498.00;4959254;28;20024;-70
2022/06/03 02:28:31;;;;;;;1.15;1.05;;;;;;;13.85;51.95;100499.38;4962229;28;20037;-73
2022/06/03 02:31:32;;;;;;;1.05;0.80;;;;;;;13.80;52.47;100486.50;4958923;28;20062;-72
2022/06/03 02:34:28;;;;;;;1.50;1.00;;;;;;;13.78;52.17;100492.28;4963837;28;20027;-70
2022/06/03 02:36:57;;;;;;;2.60;1.02;;;;;;;13.75;53.29;100492.81;4955323;28;20047;-72
2022/06/03 02:39:31;;;;;;;1.80;0.90;;;;;;;13.71;52.47;100486.28;4951232;28;20114;-71
2022/06/03 02:42:17;;;;;;;;;;;;;;;13.75;52.83;100483.78;4957880;28;20046;-72
2022/06/03 02:45:03;;;;;;;2.47;1.08;;;;;;;13.75;52.83;100479.09;4953571;28;20417;-72
2022/06/03 02:47:47;;;;;;;1.55;1.13;;;;;;;13.69;53.62;100476.69;4951449;28;20031;-72
2022/06/03 02:50:38;;;;;;;1.45;1.10;;;;;;;13.63;53.25;100480.56;4949752;28;20036;-72
2022/06/03 02:53:06;;;;;;;1.30;1.00;;;;;;;13.57;53.48;100471.53;4956835;28;20027;-73
2022/06/03 02:56:20;;;;;;;1.10;1.00;;;;;;;13.50;53.76;100482.03;4956435;28;20034;-72
2022/06/03 02:59:14;;;;;;;1.85;1.20;;;;;;;13.43;54.48;100474.94;4922765;28;20039;-72
2022/06/03 03:01:46;;;;;;;1.80;1.30;;;;;;;13.38;54.21;100469.44;4957648;28;20561;-73
2022/06/03 03:04:39;;;;;;;2.88;1.27;;;;;;;13.30;54.61;100467.25;4952055;28;20102;-73
2022/06/03 03:07:38;;;;;;;1.35;1.08;;;;;;;13.25;55.06;100464.56;4964255;28;20019;-73
2022/06/03 03:10:09;;;;;;;1.48;0.93;;;;;;;13.20;54.54;100461.81;4956687;28;20026;-73
2022/06/03 03:13:01;;;;;;;1.52;0.93;;;;;;;13.15;55.28;100451.69;4963976;28;20027;-73
2022/06/03 03:15:54;;;;;;;1.30;0.80;;;;;;;13.12;55.51;100451.44;4957519;28;20061;-72
2022/06/03 03:18:48;;;;;;;0.93;0.82;;;;;;;13.03;55.21;100453.97;4958977;28;20063;-73
2022/06/03 03:21:35;;;;;;;1.38;1.20;;;;;;;12.95;55.34;100458.09;4960359;28;20038;-73
2022/06/03 03:24:12;;;;;;;1.50;1.00;;;;;;;12.88;55.98;100454.84;4959750;28;20019;-73
2022/06/03 03:26:59;;;;;;;1.00;0.90;;;;;;;12.81;56.72;100448.84;4958580;28;20040;-72
2022/06/03 03:29:43;;;;;;;1.95;1.30;;;;;;;12.74;56.79;100449.94;4962584;28;20054;-73
2022/06/03 03:32:33;;;;;;;2.08;1.38;;;;;;;12.65;57.17;100440.66;4959565;28;20086;-73
2022/06/03 03:35:23;;;;;;;2.03;1.40;;;;;;;12.62;57.61;100440.41;4961082;28;20152;-73
2022/06/03 03:37:58;;;;;;;2.00;1.80;;;;;;;12.57;57.62;100443.97;4960897;28;20441;-72
2022/06/03 03:40:43;;;;;;;2.58;1.45;;;;;;;12.49;58.16;100450.84;4960706;28;20035;-72
2022/06/03 03:43:31;;;;;;;1.92;1.65;;;;;;;12.38;57.99;100447.31;4955737;28;20030;-71
2022/06/03 03:46:09;;;;;;;3.85;2.50;;;;;;;12.26;58.84;100451.47;4954868;28;20375;-73
2022/06/03 03:48:59;;;;;;;1.88;1.60;;;;;;;12.16;59.24;100444.06;4951861;28;20026;-73
2022/06/03 03:52:00;;;;;;;3.72;2.25;;;;;;;12.06;59.83;100444.88;4956839;28;20035;-72
2022/06/03 03:54:31;;;;;;;3.05;2.20;;;;;;;12.00;59.70;100446.84;4954129;28;20027;-71
2022/06/03 03:57:26;;;;;;;2.25;1.85;;;;;;;11.94;60.40;100447.91;4963141;28;20054;-72
2022/06/03 04:00:04;;;;;;;2.28;2.08;;;;;;;11.87;60.38;100448.16;4931642;28;20039;-71
2022/06/03 04:02:35;;;;;;;2.65;1.80;;;;;;;11.84;60.81;100442.41;4953435;28;20102;-74
2022/06/03 04:05:23;;;;;;;2.42;1.83;;;;;;;11.80;60.75;100436.66;4963023;28;20027;-72
2022/06/03 04:08:36;;;;;;;3.47;2.40;;;;;;;11.76;60.71;100442.97;4960825;28;20127;-73
2022/06/03 04:11:56;;;;;;;3.47;2.30;;;;;;;11.73;61.23;100447.06;4952408;28;20398;-72
2022/06/03 04:14:48;;;;;;;4.32;2.35;;;;;;;11.70;61.51;100436.66;4905212;29;20032;-72
2022/06/03 04:17:45;;;;;;;2.75;2.35;;;;;;;11.69;61.64;100446.78;4944621;28;20059;-73
2022/06/03 04:20:44;;;;;;;3.53;2.88;;;;;;;11.69;62.19;100441.28;4922104;29;20040;-73
2022/06/03 04:23:22;;;;;;;3.90;2.92;;;;;;;11.70;61.75;100437.47;4918379;29;20032;-73
2022/06/03 04:25:56;;;;;;;3.90;2.50;;;;;;;11.73;62.44;100440.78;4944457;29;20031;-72
2022/06/03 04:28:27;;;;;;;3.42;2.30;;;;;;;11.76;62.05;100448.44;4926669;29;20082;-73
2022/06/03 04:31:27;;;;;;;3.90;2.30;;;;;;;11.78;62.19;100444.31;4942461;29;20047;-73
2022/06/03 04:34:11;;;;;;;3.13;2.30;;;;;;;11.95;62.01;100438.59;4941654;29;20016;-72
2022/06/03 04:36:40;;;;;;;3.03;2.22;;;;;;;12.11;61.92;100438.59;4927074;29;20100;-74
2022/06/03 04:40:01;;;;;;;2.45;2.13;;;;;;;12.32;61.43;100437.44;4943472;29;20035;-72
2022/06/03 04:42:51;;;;;;;4.22;2.25;;;;;;;12.46;60.98;100442.38;4937622;29;20030;-74
2022/06/03 04:45:25;;;;;;;2.88;2.15;;;;;;;12.63;60.61;100437.38;4938216;29;20027;-74
2022/06/03 04:48:19;;;;;;;5.00;2.85;;;;;;;12.80;61.00;100436.22;4919015;29;20028;-72
2022/06/03 04:51:22;;;;;;;3.23;1.73;;;;;;;13.07;60.46;100436.63;4937017;29;20115;-72
2022/06/03 04:54:01;;;;;;;4.03;2.00;;;;;;;13.25;59.47;100431.59;4934881;29;20035;-75
2022/06/03 04:57:13;;;;;;;1.60;1.50;;;;;;;13.40;59.37;100434.28;4927164;29;20103;-73
2022/06/03 05:00:09;;;;;;;2.88;2.10;;;;;;;13.51;59.07;100439.72;4887745;29;20042;-72
2022/06/03 05:02:53;;;;;;;2.90;2.20;;;;;;;13.54;58.84;100433.66;4930607;29;20038;-72
2022/06/03 05:06:02;;;;;;;3.33;2.37;;;;;;;13.61;59.13;100434.16;4934988;29;20028;-73
2022/06/03 05:08:43;;;;;;;3.20;2.53;;;;;;;13.77;59.37;100437.59;4926364;29;20049;-72
2022/06/03 05:11:30;;;;;;;5.25;2.80;;;;;;;13.88;58.76;100438.31;4934751;29;20046;-70
2022/06/03 05:14:23;;;;;;;3.08;2.75;;;;;;;13.94;58.97;100442.66;4928667;29;20131;-72
2022/06/03 05:17:08;;;;;;;2.95;2.55;;;;;;;14.04;58.24;100442.56;4926391;28;20043;-70
2022/06/03 05:19:36;;;;;;;;;;;;;;;14.16;58.65;100446.88;4954621;28;20478;-73
2022/06/03 05:22:37;;;;;;;3.47;2.13;;;;;;;14.23;58.22;100439.91;4948629;28;20005;-71
2022/06/03 05:25:21;;;;;;;3.30;2.80;;;;;;;14.29;57.56;100437.94;4937238;28;20029;-72
2022/06/03 05:28:24;;;;;;;6.25;2.90;;;;;;;14.37;57.88;100451.06;4946285;28;20027;-72
2022/06/03 05:31:11;;;;;;;2.60;1.80;;;;;;;14.59;57.46;100438.75;4947107;28;20035;-72
2022/06/03 05:34:13;;;;;;;3.35;2.85;;;;;;;14.57;57.40;100428.03;4949536;28;20034;-73
2022/06/03 05:37:03;;;;;;;5.50;2.85;;;;;;;14.69;57.55;100435.91;4956761;28;21521;-71
2022/06/03 05:39:53;;;;;;;3.50;2.42;;;;;;;14.75;57.24;100440.22;4953346;28;20028;-72
2022/06/03 05:43:01;;;;;;;5.25;3.22;;;;;;;14.78;56.99;100439.63;4959017;28;20035;-72
2022/06/03 05:45:45;;;;;;;2.95;2.60;;;;;;;14.82;57.30;100448.09;4956925;28;20016;-73
2022/06/03 05:48:18;;;;;;;3.58;2.75;;;;;;;14.82;56.89;100445.34;4946347;28;20032;-72
2022/06/03 05:51:07;;;;;;;3.42;2.20;;;;;;;14.82;56.93;100435.19;4950468;28;20035;-71
2022/06/03 05:53:34;;;;;;;3.70;2.88;;;;;;;15.00;56.92;100446.53;4946286;28;20038;-71
2022/06/03 05:56:15;;;;;;;3.65;2.83;;;;;;;15.09;56.74;100441.19;4952617;28;20020;-71
2022/06/03 05:59:12;;;;;;;4.07;3.60;;;;;;;15.09;56.74;100444.75;4965537;28;20109;-72
2022/06/03 06:01:46;;;;;;;4.15;3.10;;;;;;;15.09;56.98;100436.47;4956725;28;20027;-71
2022/06/03 06:04:14;;;;;;;;;;;;;;;15.23;56.87;100446.75;4950507;28;20031;-73
2022/06/03 06:07:07;;;;;;;6.20;2.88;;;;;;;15.27;56.50;100434.03;4953266;28;19921;-72
2022/06/03 06:09:48;;;;;;;6.40;3.58;;;;;;;15.41;56.22;100434.94;4954877;28;20038;-72
2022/06/03 06:12:41;;;;;;;4.32;2.92;;;;;;;15.51;56.03;100440.28;4954643;28;20038;-71
2022/06/03 06:15:41;;;;;;;4.25;3.17;;;;;;;15.60;55.82;100442.38;4949161;28;20048;-73
2022/06/03 06:18:20;;;;;;;4.78;3.20;;;;;;;15.52;56.36;100436.44;4939235;28;20036;-72
2022/06/03 06:21:19;;;;;;;5.70;3.78;;;;;;;15.52;56.26;100452.13;4913156;29;20036;-72
2022/06/03 06:23:51;;;;;;;7.15;4.13;;;;;;;15.41;56.62;100451.47;4923592;29;20048;-73
2022/06/03 06:26:22;;;;;;;6.63;4.68;;;;;;;15.24;56.89;100453.91;4921507;29;20031;-74
2022/06/03 06:29:03;;;;;;;8.48;4.72;;;;;;;15.09;57.24;100465.97;4929886;29;20024;-73
2022/06/03 06:32:06;;;;;;;7.13;4.22;;;;;;;14.81;58.39;100463.81;4930308;29;20470;-74
2022/06/03 06:34:59;;;;;;;7.70;4.13;;;;;;;14.69;58.88;100463.44;4929360;29;20028;-73
2022/06/03 06:37:28;;;;;;;4.57;3.60;;;;;;;14.66;58.67;100469.50;4921201;29;20039;-74
2022/06/03 06:40:16;;;;;;;10.00;4.28;;;;;;;14.61;59.05;100462.13;4930825;29;20462;-73
2022/06/03 06:42:51;;;;;;;5.35;4.00;;;;;;;14.70;59.07;100470.56;4926808;29;20813;-74
2022/06/03 06:45:22;;;;;;;7.82;4.80;;;;;;;14.61;59.57;100451.09;4928643;29;20036;-73
2022/06/03 06:48:03;;;;;;;5.07;3.70;;;;;;;14.71;59.96;100468.63;4933383;29;20119;-72
2022/06/03 06:50:46;;;;;;;6.80;4.60;;;;;;;14.82;59.79;100462.72;4923830;29;20063;-73
2022/06/03 06:53:21;;;;;;;8.10;4.38;;;;;;;15.00;59.80;100447.34;4919345;29;20051;-71
2022/06/03 06:55:55;;;;;;;9.43;3.53;;;;;;;15.39;58.98;100459.22;4933589;29;20039;-72
2022/06/03 06:58:28;;;;;;;;;;;;;;;15.72;58.44;100467.53;4933681;29;20501;-71
2022/06/03 07:01:28;;;;;;;5.00;3.72;;;;;;;15.76;57.97;100463.06;4914669;29;19919;-78
2022/06/03 07:04:11;;;;;;;;;;;;;;;;;;;;;
2022/06/03 07:07:25;;;;;;;4.80;3.90;;;;;;;15.99;57.88;100455.84;4932944;29;20451;-77
2022/06/03 07:10:11;;;;;;;7.65;3.70;;;;;;;16.35;57.09;100469.00;4914580;29;20039;-77
2022/06/03 07:13:01;;;;;;;;;;;;;;;;;;;;;
2022/06/03 07:15:54;;;;;;;3.83;3.00;;;;;;;16.63;56.18;100429.56;4933859;29;20084;-77
2022/06/03 07:22:03;;;;;;;5.10;3.10;;;;;;;17.66;55.28;100468.81;4949030;28;20034;-77
2022/06/03 07:24:45;;;;;;;5.93;3.30;;;;;;;18.13;53.77;100452.75;4945058;28;20131;-75
2022/06/03 07:27:20;;;;;;;5.63;3.58;;;;;;;18.55;52.15;100458.81;4947954;28;20027;-76
2022/06/03 07:30:16;;;;;;;6.60;3.58;;;;;;;18.96;51.62;100473.50;4966319;28;20118;-76
2022/06/03 07:32:57;;;;;;;3.55;2.50;;;;;;;19.44;50.65;100469.03;4958135;28;20032;-78
2022/06/03 07:35:47;;;;;;;5.15;2.42;;;;;;;19.90;49.96;100473.13;4950769;28;20091;-77
2022/06/03 07:38:28;;;;;;;5.63;3.75;;;;;;;20.34;48.73;100464.72;4947730;28;20016;-76
2022/06/03 07:41:01;;;;;;;5.97;3.88;;;;;;;20.58;47.59;100478.03;4948649;28;20386;-76
2022/06/03 07:44:08;;;;;;;4.53;2.92;;;;;;;20.68;47.49;100469.38;4962585;28;20421;-76
2022/06/03 07:47:00;;;;;;;4.88;2.80;;;;;;;20.91;46.08;100463.56;4947914;28;20533;-77
2022/06/03 07:49:33;;;;;;;5.28;3.03;;;;;;;21.41;44.96;100462.72;4958116;28;20106;-76
2022/06/03 07:52:40;;;;;;;5.18;2.97;;;;;;;22.09;44.14;100475.59;4956695;28;20031;-78
2022/06/03 07:58:37;;;;;;;6.07;2.75;;;;;;;23.05;41.26;100465.28;4923800;29;20099;-75
2022/06/03 08:01:30;;;;;;;4.32;2.90;;;;;;;23.17;40.64;100459.75;4892827;29;20096;-76
2022/06/03 08:04:11;;;;;;;3.28;2.20;;;;;;;23.39;40.79;100449.22;4907468;29;20036;-76
2022/06/03 08:17:09;;;;;;;;;;;;;;;;;;;;;
2022/06/03 08:19:47;;;;;;;4.25;2.75;;;;;;;23.32;39.92;100451.81;4827538;29;20125;-76
2022/06/03 08:26:13;;;;;;;3.30;2.88;;;;;;;23.40;39.99;100469.56;4908477;29;20032;-78
2022/06/03 08:29:21;;;;;;;;;;;;;;;;;;;;;
2022/06/03 08:32:17;;;;;;;;;;;;;;;;;;;;;
2022/06/03 08:38:59;;;;;;;;;;;;;;;;;;;;;
2022/06/03 08:48:51;;;;;;;;;;;;;;;;;;;;;
2022/06/03 08:52:04;;;;;;;;;;;;;;;;;;;;;
2022/06/03 08:55:15;;;;;;;;;;;;;;;;;;;;;
2022/06/03 08:58:40;;;;;;;;;;;;;;;;;;;;;
2022/06/03 09:06:06;;;;;;;;;;;;;;;;;;;;;
2022/06/03 09:12:35;;;;;;;1.85;1.10;;;;;;;27.08;33.40;100448.75;4821475;29;20137;-72
2022/06/03 09:15:50;;;;;;;2.28;1.30;;;;;;;26.45;34.43;100433.31;4816264;29;20026;-72
2022/06/03 09:18:21;;;;;;;3.10;1.65;;;;;;;25.78;35.05;100423.25;4921760;28;20130;-72
2022/06/03 09:21:51;;;;;;;;;;;;;;;;;;;;;
2022/06/03 09:24:50;;;;;;;3.45;1.35;;;;;;;25.23;35.96;100434.47;4953223;28;20035;-72
2022/06/03 09:27:42;;;;;;;2.50;1.48;;;;;;;25.53;36.35;100445.97;4955173;28;21113;-71
2022/06/03 09:31:33;;;;;;;2.38;1.60;;;;;;;25.66;35.19;100449.44;4950088;28;20035;-71
2022/06/03 09:33:53;;;;;;;3.10;1.38;;;;;;;25.68;35.64;100435.84;4917154;28;20046;-70
2022/06/03 09:40:11;;;;;;;3.70;1.40;;;;;;;26.34;34.94;100440.72;4931881;28;20071;-72
2022/06/03 09:42:38;;;;;;;2.67;1.17;;;;;;;26.95;34.21;100436.94;4929835;28;20039;-73
2022/06/03 09:48:47;;;;;;;;;;;;;;;;;;;;;
2022/06/03 09:52:00;;;;;;;4.18;1.50;;;;;;;28.04;32.75;100442.00;4948376;28;20138;-71
2022/06/03 09:55:05;;;;;;;3.08;1.50;;;;;;;27.83;32.75;100428.50;4951010;28;20034;-71
2022/06/03 09:58:44;;;;;;;;;;;;;;;;;;;;;
2022/06/03 10:01:06;;;;;;;;;;;;;;;;;;;;;
2022/06/03 10:03:39;;;;;;;1.70;0.90;;;;;;;27.68;32.46;100421.91;4945886;28;20039;-70
2022/06/03 10:06:49;;;;;;;4.32;1.75;;;;;;;27.63;32.65;100419.44;4943566;28;20052;-73
2022/06/03 10:21:18;;;;;;;;;;;;;;;;;;;;;
2022/06/03 10:24:04;;;;;;;2.38;1.50;;;;;;;27.85;32.88;100424.09;4931563;29;20486;-72
2022/06/03 10:26:37;;;;;;;2.50;1.27;;;;;;;28.02;32.70;100431.16;4933353;29;20051;-74
2022/06/03 10:32:12;;;;;;;2.22;1.17;;;;;;;28.68;31.49;100422.13;4920567;29;20040;-73
2022/06/03 10:34:43;;;;;;;2.20;1.23;;;;;;;29.39;31.31;100426.59;4918315;29;20028;-72
2022/06/03 10:37:15;;;;;;;3.00;1.60;;;;;;;30.05;29.99;100422.84;4919451;29;20040;-71
2022/06/03 10:39:43;;;;;;;2.05;1.33;;;;;;;30.95;29.08;100434.13;4922083;29;20030;-71
2022/06/03 10:42:23;;;;;;;2.10;1.40;;;;;;;31.67;27.95;100425.50;4922809;29;20374;-73
2022/06/03 10:45:14;;;;;;;3.33;1.50;;;;;;;32.24;27.25;100436.88;4904302;29;20040;-74
2022/06/03 10:47:53;;;;;;;3.22;1.23;;;;;;;33.76;25.68;100439.84;4889132;29;20051;-72
2022/06/03 11:08:24;;;;;;;2.70;1.77;;;;;;;37.63;19.28;100425.53;4833604;29;20037;-71
2022/06/03 11:13:40;;;;;;;4.45;1.83;;;;;;;35.34;20.90;100449.88;4837517;29;20096;-70
2022/06/03 11:19:53;;;;;;;2.85;1.50;;;;;;;31.67;24.75;100433.16;4840162;29;20118;-75
2022/06/03 11:22:21;;;;;;;2.47;1.75;;;;;;;31.26;24.78;100426.00;4891635;28;20035;-73
2022/06/03 11:25:12;;;;;;;7.30;1.30;;;;;;;31.31;25.14;100427.63;4950854;28;20078;-73
2022/06/03 11:27:52;;;;;;;2.88;1.15;;;;;;;31.35;25.34;100411.44;4941981;28;20046;-73
2022/06/03 11:30:27;;;;;;;3.67;1.42;;;;;;;31.41;25.38;100425.97;4942490;29;20031;-74
2022/06/03 11:33:02;;;;;;;1.10;0.98;;;;;;;32.43;25.02;100427.84;4939693;28;20038;-73
2022/06/03 11:35:37;;;;;;;2.90;1.42;;;;;;;33.65;23.76;100427.84;4939599;28;20070;-74
2022/06/03 11:38:07;;;;;;;1.83;1.00;;;;;;;34.17;22.85;100427.50;4951511;28;20048;-74
2022/06/03 11:40:38;;;;;;;1.75;1.13;;;;;;;36.58;21.34;100438.97;4951177;28;20031;-74
2022/06/03 11:43:31;;;;;;;2.10;1.20;;;;;;;39.26;18.89;100438.13;4937409;29;20027;-74
2022/06/03 11:46:07;;;;;;;3.25;0.85;;;;;;;38.29;18.77;100425.13;4948955;28;20063;-72
2022/06/03 11:48:39;;;;;;;1.10;0.90;;;;;;;36.84;19.77;100444.81;4934429;28;20033;-73
2022/06/03 11:51:07;;;;;;;1.73;0.87;;;;;;;35.94;20.80;100425.03;4955319;28;20031;-74
2022/06/03 11:53:39;;;;;;;2.53;1.05;;;;;;;35.73;20.81;100437.66;4941458;29;20031;-74
2022/06/03 11:56:08;;;;;;;2.33;0.98;;;;;;;35.33;20.92;100428.38;4936288;28;20050;-72
2022/06/03 11:58:55;;;;;;;2.90;1.10;;;;;;;36.69;20.61;100427.28;4949853;28;20130;-73
2022/06/03 12:01:45;;;;;;;1.00;0.70;;;;;;;38.96;18.89;100431.84;4948795;28;20493;-74
2022/06/03 12:04:42;;;;;;;1.77;0.70;;;;;;;39.50;18.56;100446.22;4956682;28;20114;-73
2022/06/03 12:07:07;;;;;;;1.25;0.77;;;;;;;39.75;17.22;100434.66;4952124;28;20078;-74
2022/06/03 12:09:40;;;;;;;0.85;0.68;;;;;;;40.33;17.13;100432.31;4942204;28;20035;-74
2022/06/03 12:15:29;;;;;;;1.67;0.70;;;;;;;45.53;13.74;100424.06;4952561;28;20118;-74
2022/06/03 12:17:54;;;;;;;1.05;0.60;;;;;;;48.31;12.13;100417.06;4959455;28;20054;-72
2022/06/03 12:20:32;;;;;;;1.20;0.57;;;;;;;50.82;10.81;100417.38;4939721;28;20044;-73
2022/06/03 12:23:19;;;;;;;0.80;0.70;;;;;;;51.13;10.19;100415.88;4931563;29;20034;-76
2022/06/03 12:25:57;;;;;;;4.03;1.40;;;;;;;48.20;10.80;100399.69;4929471;29;20032;-74
2022/06/03 12:28:38;;;;;;;2.00;0.70;;;;;;;43.96;12.74;100406.38;4918882;29;20027;-74
2022/06/03 12:31:08;;;;;;;2.00;0.70;;;;;;;41.84;14.51;100401.91;4923646;29;20040;-76
2022/06/03 12:33:51;;;;;;;1.02;0.70;;;;;;;39.48;15.97;100391.56;4936486;29;20024;-75
2022/06/03 12:36:50;;;;;;;1.85;0.98;;;;;;;37.08;17.51;100391.25;4915282;29;20159;-76
2022/06/03 12:39:18;;;;;;;1.00;0.80;;;;;;;35.45;18.83;100394.38;4924417;29;20052;-74
2022/06/03 12:41:44;;;;;;;2.38;0.80;;;;;;;36.34;18.95;100385.06;4924911;29;20102;-74
2022/06/03 12:44:32;;;;;;;1.42;0.80;;;;;;;37.16;17.75;100389.00;4919207;29;20970;-74
2022/06/03 12:47:25;;;;;;;1.10;0.70;;;;;;;36.68;18.13;100392.31;4918009;29;20051;-73
2022/06/03 12:50:11;;;;;;;;;;;;;;;37.29;17.82;100392.72;4930685;29;20132;-74
2022/06/03 12:52:42;;;;;;;2.38;0.85;;;;;;;37.40;18.05;100371.63;4911929;29;19930;-74
2022/06/03 12:55:20;;;;;;;;;;;;;;;;;;;;;
2022/06/03 12:57:48;;;;;;;1.20;0.70;;;;;;;42.76;14.33;100394.00;4924816;29;20121;-74
2022/06/03 13:00:49;;;;;;;2.45;0.80;;;;;;;40.78;15.05;100399.31;4929499;29;20083;-75
2022/06/03 13:03:15;;;;;;;1.08;0.70;;;;;;;38.10;16.73;100384.13;4911468;29;20039;-74
2022/06/03 13:06:17;;;;;;;2.33;0.93;;;;;;;37.24;17.39;100393.25;4916025;29;20486;-74
2022/06/03 13:11:49;;;;;;;0.68;0.60;;;;;;;37.15;17.72;100393.09;4932316;29;20035;-75
2022/06/03 13:14:32;;;;;;;1.80;0.98;;;;;;;37.21;17.46;100394.16;4911677;29;20032;-72
2022/06/03 13:17:48;;;;;;;;;;;;;;;;;;;;;
2022/06/03 13:23:44;;;;;;;1.15;0.70;;;;;;;36.40;17.87;100395.91;4913471;29;20509;-75
2022/06/03 13:26:41;;;;;;;;;;;;;;;;;;;;;
2022/06/03 13:29:56;;;;;;;;;;;;;;;;;;;;;
2022/06/03 13:33:00;;;;;;;1.67;0.75;;;;;;;33.36;20.17;100369.47;4911694;29;20118;-77
2022/06/03 13:36:34;;;;;;;;;;;;;;;;;;;;;
2022/06/03 13:39:35;;;;;;;1.52;0.90;;;;;;;38.31;16.97;100368.34;4819275;29;20116;-75
2022/06/03 13:44:53;;;;;;;1.35;0.75;;;;;;;39.81;15.39;100380.47;4926210;29;20389;-74
2022/06/03 13:47:34;;;;;;;2.17;0.70;;;;;;;38.95;15.66;100384.50;4930579;29;20031;-75
2022/06/03 13:50:18;;;;;;;0.70;0.70;;;;;;;37.86;16.35;100386.53;4900580;29;20066;-75
2022/06/03 13:53:16;;;;;;;;;;;;;;;;;;;;;
2022/06/03 13:56:22;;;;;;;;;;;;;;;;;;;;;
2022/06/03 13:59:38;;;;;;;1.67;0.80;;;;;;;34.16;18.85;100354.97;4916628;29;20039;-74
2022/06/03 14:02:57;;;;;;;;;;;;;;;;;;;;;
2022/06/03 14:05:34;;;;;;;0.82;0.70;;;;;;;35.36;18.52;100368.59;4930545;29;20057;-74
2022/06/03 14:08:18;;;;;;;2.30;1.10;;;;;;;35.43;18.36;100362.78;4931684;29;20020;-74
2022/06/03 14:11:04;;;;;;;1.90;0.80;;;;;;;35.51;18.25;100380.47;4945515;29;20058;-76
2022/06/03 14:14:07;;;;;;;2.92;0.68;;;;;;;35.01;18.73;100370.13;4912167;29;20091;-74
2022/06/03 14:16:46;;;;;;;1.70;0.70;;;;;;;35.15;18.62;100375.53;4916633;29;20084;-73
2022/06/03 14:19:30;;;;;;;;;;;;;;;;;;;;;
2022/06/03 14:22:28;;;;;;;2.78;0.82;;;;;;;34.67;19.04;100368.28;4943493;28;20816;-74
2022/06/03 14:25:33;;;;;;;1.30;0.75;;;;;;;34.15;19.58;100367.53;4952611;28;20035;-74
2022/06/03 14:31:34;;;;;;;2.35;1.38;;;;;;;34.83;18.76;100371.28;4942358;28;20040;-74
2022/06/03 14:34:21;;;;;;;2.33;0.95;;;;;;;33.86;19.95;100356.69;4951880;28;20024;-75
2022/06/03 14:36:50;;;;;;;1.48;0.90;;;;;;;33.20;20.45;100346.59;4965582;28;20028;-75
2022/06/03 14:39:51;;;;;;;;;;;;;;;;;;;;;
2022/06/03 14:42:42;;;;;;;;;;;;;;;;;;;;;
2022/06/03 14:45:16;;;;;;;0.95;0.60;;;;;;;29.21;24.68;100341.22;4942910;28;20049;-74
2022/06/03 14:48:37;;;;;;;2.55;0.70;;;;;;;28.30;25.95;100331.41;4951940;28;20055;-77
2022/06/03 14:52:04;;;;;;;;;;;;;;;;;;;;;
2022/06/03 14:54:47;;;;;;;;;;;;;;;;;;;;;
2022/06/03 14:58:09;;;;;;;;;;;;;;;;;;;;;
2022/06/03 15:04:52;;;;;;;;;;;;;;;;;;;;;
2022/06/03 15:07:58;;;;;;;2.03;1.00;;;;;;;25.33;30.96;100351.97;4954874;28;20138;-77
2022/06/03 15:24:03;;;;;;;1.17;0.75;;;;;;;23.97;33.35;100355.97;4950240;28;20054;-75
2022/06/03 15:26:43;;;;;;;;;;;;;;;23.92;33.12;100364.59;4954157;28;20023;-74
2022/06/03 15:29:23;;;;;;;1.05;0.90;;;;;;;23.90;34.56;100366.94;4958782;28;19922;-74
2022/06/03 15:31:55;;;;;;;23.33;12.70;;;;;;;23.80;34.94;100371.03;4962588;28;20618;-74
2022/06/03 15:34:22;;;;;;;20.42;10.93;;;;;;;23.56;35.54;100385.94;4949692;28;20047;-74
2022/06/03 15:36:52;;;;;;;9.60;5.03;;;;;;;22.88;37.04;100376.31;4952399;28;20023;-75
2022/06/03 15:39:35;;;;;;;55.72;23.55;;;;;;;22.51;37.45;100384.72;4951462;28;21193;-74
2022/06/03 15:42:21;;;;;;;48.40;23.20;;;;;;;22.26;37.82;100379.09;4955806;28;20045;-76
2022/06/03 15:44:54;;;;;;;26.17;12.45;;;;;;;21.99;38.00;100359.13;4944400;28;20035;-74
2022/06/03 15:47:42;;;;;;;16.43;7.20;;;;;;;22.02;38.21;100388.22;4963273;28;20527;-75